createdAt,value
2022-12-24T00:00:06.330Z,12.46
2022-12-24T00:02:35.683Z,12.58
2022-12-24T00:05:04.809Z,12.48
2022-12-24T00:07:32.986Z,12.46
2022-12-24T00:10:01.334Z,12.48
2022-12-24T00:12:29.412Z,12.36
2022-12-24T00:14:59.127Z,12.42
2022-12-24T00:17:27.193Z,12.36
2022-12-24T00:19:55.194Z,12.28
2022-12-24T00:22:23.246Z,12.27
2022-12-24T00:24:51.264Z,12.17
2022-12-24T00:27:19.415Z,12.17
2022-12-24T00:29:47.404Z,12.16
2022-12-24T00:32:19.196Z,12.25
2022-12-24T00:34:47.291Z,12.21
2022-12-24T00:37:15.393Z,12.27
2022-12-24T00:39:43.517Z,12.11
2022-12-24T00:42:11.555Z,12.13
2022-12-24T00:44:39.624Z,12.29
2022-12-24T00:47:11.947Z,12.21
2022-12-24T00:49:41.687Z,12.12
2022-12-24T00:52:09.752Z,12.10
2022-12-24T00:54:37.943Z,12.17
2022-12-24T00:57:06.011Z,12.16
2022-12-24T00:59:34.046Z,12.17
2022-12-24T01:02:02.208Z,12.14
2022-12-24T01:04:50.157Z,12.05
2022-12-24T01:07:19.567Z,11.70
2022-12-24T01:09:47.652Z,11.36
2022-12-24T01:12:15.750Z,11.33
2022-12-24T01:14:44.095Z,11.14
2022-12-24T01:17:12.216Z,11.11
2022-12-24T01:19:40.300Z,10.98
2022-12-24T01:22:08.464Z,10.87
2022-12-24T01:24:37.974Z,10.81
2022-12-24T01:27:06.043Z,10.74
2022-12-24T01:29:34.166Z,10.64
2022-12-24T01:32:02.407Z,10.67
2022-12-24T01:34:30.531Z,10.25
2022-12-24T01:36:58.574Z,10.38
2022-12-24T01:39:26.655Z,10.27
2022-12-24T01:42:13.788Z,10.24
2022-12-24T01:44:43.353Z,10.28
2022-12-24T01:47:14.154Z,10.24
2022-12-24T01:49:43.618Z,10.10
2022-12-24T01:52:13.840Z,10.06
2022-12-24T01:54:44.652Z,9.92
2022-12-24T01:57:17.052Z,9.84
2022-12-24T01:59:47.603Z,9.95
2022-12-24T02:02:16.927Z,9.99
2022-12-24T02:04:48.739Z,10.10
2022-12-24T02:07:16.924Z,10.24
2022-12-24T02:09:45.219Z,10.33
2022-12-24T02:12:14.949Z,10.44
2022-12-24T02:14:42.997Z,10.39
2022-12-24T02:17:15.422Z,10.48
2022-12-24T02:20:05.749Z,10.58
2022-12-24T02:22:40.610Z,10.39
2022-12-24T02:25:29.461Z,10.37
2022-12-24T02:28:01.463Z,10.49
2022-12-24T02:30:34.244Z,10.57
2022-12-24T02:33:07.534Z,10.46
2022-12-24T02:35:43.917Z,10.23
2022-12-24T02:38:15.421Z,10.33
2022-12-24T02:40:46.208Z,10.27
2022-12-24T02:43:18.400Z,10.11
2022-12-24T02:45:58.555Z,10.14
2022-12-24T02:48:29.107Z,9.97
2022-12-24T02:50:58.515Z,10.00
2022-12-24T02:53:26.787Z,10.01
2022-12-24T02:56:01.927Z,9.88
2022-12-24T02:58:36.353Z,9.95
2022-12-24T03:01:17.696Z,10.07
2022-12-24T03:03:55.787Z,9.95
2022-12-24T03:06:29.700Z,9.95
2022-12-24T03:09:01.579Z,10.19
2022-12-24T03:11:29.811Z,10.28
2022-12-24T03:14:00.753Z,10.16
2022-12-24T03:16:30.285Z,10.32
2022-12-24T03:18:59.756Z,10.21
2022-12-24T03:21:30.228Z,9.98
2022-12-24T03:23:58.449Z,9.99
2022-12-24T03:26:27.794Z,10.06
2022-12-24T03:28:56.083Z,10.06
2022-12-24T03:31:24.174Z,10.23
2022-12-24T03:33:53.540Z,10.25
2022-12-24T03:36:21.540Z,10.46
2022-12-24T03:38:49.553Z,10.28
2022-12-24T03:41:17.551Z,10.09
2022-12-24T03:43:47.655Z,10.24
2022-12-24T03:46:15.627Z,10.28
2022-12-24T03:48:43.628Z,10.45
2022-12-24T03:51:18.048Z,10.62
2022-12-24T03:53:46.161Z,10.39
2022-12-24T03:56:14.182Z,10.42
2022-12-24T03:58:42.537Z,10.41
2022-12-24T04:01:10.670Z,10.48
2022-12-24T04:03:38.711Z,10.39
2022-12-24T04:06:08.127Z,10.41
2022-12-24T04:08:37.876Z,10.33
2022-12-24T04:11:09.916Z,10.39
2022-12-24T04:13:38.341Z,10.03
2022-12-24T04:16:07.545Z,9.83
2022-12-24T04:18:38.380Z,9.88
2022-12-24T04:21:07.120Z,9.88
2022-12-24T04:23:36.184Z,9.90
2022-12-24T04:26:06.455Z,9.91
2022-12-24T04:28:35.099Z,10.05
2022-12-24T04:31:04.259Z,10.16
2022-12-24T04:33:34.641Z,9.79
2022-12-24T04:36:03.202Z,9.78
2022-12-24T04:38:31.523Z,9.72
2022-12-24T04:41:01.756Z,9.88
2022-12-24T04:43:31.327Z,9.88
2022-12-24T04:46:05.270Z,9.77
2022-12-24T04:48:33.372Z,9.66
2022-12-24T04:51:02.435Z,9.72
2022-12-24T04:53:30.464Z,9.51
2022-12-24T04:55:59.010Z,9.64
2022-12-24T04:58:27.396Z,9.84
2022-12-24T05:00:57.032Z,9.53
2022-12-24T05:03:28.199Z,9.84
2022-12-24T05:06:01.829Z,9.49
2022-12-24T05:08:29.943Z,9.34
2022-12-24T05:10:58.535Z,9.41
2022-12-24T05:13:31.954Z,9.34
2022-12-24T05:16:07.301Z,9.42
2022-12-24T05:18:35.347Z,9.51
2022-12-24T05:21:03.431Z,9.65
2022-12-24T05:23:49.221Z,9.67
2022-12-24T05:26:24.695Z,9.62
2022-12-24T05:28:53.257Z,9.97
2022-12-24T05:31:23.704Z,10.03
2022-12-24T05:33:52.296Z,9.83
2022-12-24T05:36:20.384Z,9.68
2022-12-24T05:38:48.560Z,9.57
2022-12-24T05:41:16.688Z,9.57
2022-12-24T05:43:44.730Z,9.62
2022-12-24T05:46:13.765Z,9.51
2022-12-24T05:48:43.479Z,9.67
2022-12-24T05:51:12.568Z,9.71
2022-12-24T05:53:40.903Z,9.51
2022-12-24T05:56:10.776Z,9.43
2022-12-24T05:58:39.428Z,9.43
2022-12-24T06:01:08.080Z,9.46
2022-12-24T06:03:36.641Z,9.24
2022-12-24T06:06:07.456Z,9.23
2022-12-24T06:08:36.094Z,9.28
2022-12-24T06:11:05.275Z,9.36
2022-12-24T06:13:33.774Z,9.43
2022-12-24T06:16:03.099Z,9.11
2022-12-24T06:18:31.490Z,9.39
2022-12-24T06:21:00.072Z,9.13
2022-12-24T06:23:30.303Z,9.11
2022-12-24T06:26:00.823Z,9.28
2022-12-24T06:28:29.670Z,9.01
2022-12-24T06:31:02.621Z,9.07
2022-12-24T06:33:31.586Z,8.95
2022-12-24T06:35:59.713Z,9.23
2022-12-24T06:38:30.925Z,8.99
2022-12-24T06:40:59.297Z,9.05
2022-12-24T06:43:27.529Z,9.04
2022-12-24T06:45:55.528Z,9.15
2022-12-24T06:48:23.560Z,8.98
2022-12-24T06:50:51.560Z,9.30
2022-12-24T06:53:23.160Z,9.37
2022-12-24T06:55:52.669Z,9.11
2022-12-24T06:58:20.751Z,9.07
2022-12-24T07:00:48.800Z,9.03
2022-12-24T07:03:16.877Z,9.23
2022-12-24T07:05:44.947Z,9.39
2022-12-24T07:08:12.907Z,9.15
2022-12-24T07:10:40.893Z,9.07
2022-12-24T07:13:10.398Z,9.41
2022-12-24T07:15:38.534Z,9.41
2022-12-24T07:18:09.396Z,9.25
2022-12-24T07:20:37.435Z,9.69
2022-12-24T07:23:05.703Z,9.43
2022-12-24T07:25:33.735Z,9.28
2022-12-24T07:28:01.768Z,9.00
2022-12-24T07:30:31.224Z,9.01
2022-12-24T07:33:02.064Z,9.24
2022-12-24T07:35:30.173Z,9.35
2022-12-24T07:37:58.196Z,9.48
2022-12-24T07:40:26.195Z,9.72
2022-12-24T07:42:54.437Z,9.38
2022-12-24T07:45:24.523Z,9.24
2022-12-24T07:47:53.897Z,9.40
2022-12-24T07:50:21.935Z,9.26
2022-12-24T07:52:50.020Z,9.39
2022-12-24T07:55:18.025Z,9.16
2022-12-24T07:57:46.130Z,9.54
2022-12-24T08:00:14.581Z,9.23
2022-12-24T08:02:45.051Z,9.20
2022-12-24T08:05:14.722Z,9.26
2022-12-24T08:07:42.763Z,9.35
2022-12-24T08:10:11.068Z,9.48
2022-12-24T08:12:41.238Z,9.40
2022-12-24T08:15:09.653Z,9.45
2022-12-24T08:17:37.699Z,9.54
2022-12-24T08:20:06.488Z,9.62
2022-12-24T08:22:35.944Z,9.52
2022-12-24T08:25:04.104Z,9.66
2022-12-24T08:27:32.174Z,10.04
2022-12-24T08:30:00.205Z,9.90
2022-12-24T08:32:28.198Z,9.73
2022-12-24T08:34:56.242Z,9.94
2022-12-24T08:37:24.264Z,9.74
2022-12-24T08:39:53.610Z,9.83
2022-12-24T08:42:23.843Z,9.60
2022-12-24T08:44:51.911Z,9.70
2022-12-24T08:47:22.340Z,9.73
2022-12-24T08:49:50.418Z,9.67
2022-12-24T08:52:18.397Z,9.53
2022-12-24T08:54:48.758Z,9.47
2022-12-24T08:57:18.221Z,9.45
2022-12-24T08:59:46.250Z,9.97
2022-12-24T09:02:14.449Z,9.75
2022-12-24T09:04:43.253Z,9.74
2022-12-24T09:07:11.793Z,9.88
2022-12-24T09:09:39.877Z,9.89
2022-12-24T09:12:08.435Z,10.23
2022-12-24T09:14:38.312Z,10.25
2022-12-24T09:17:06.519Z,10.06
2022-12-24T09:19:34.821Z,10.12
2022-12-24T09:22:04.913Z,10.39
2022-12-24T09:24:33.184Z,10.40
2022-12-24T09:27:02.639Z,10.48
2022-12-24T09:29:32.731Z,10.49
2022-12-24T09:32:02.154Z,10.92
2022-12-24T09:34:30.910Z,10.90
2022-12-24T09:37:00.587Z,11.04
2022-12-24T09:39:28.626Z,11.34
2022-12-24T09:42:00.633Z,11.16
2022-12-24T09:44:35.843Z,11.10
2022-12-24T09:47:10.340Z,11.13
2022-12-24T09:49:40.310Z,11.14
2022-12-24T09:52:10.224Z,10.92
2022-12-24T09:54:43.023Z,10.97
2022-12-24T09:57:16.653Z,11.11
2022-12-24T09:59:45.607Z,11.12
2022-12-24T10:02:16.075Z,11.22
2022-12-24T10:04:45.246Z,11.20
2022-12-24T10:07:22.533Z,11.20
2022-12-24T10:09:53.367Z,11.03
2022-12-24T10:12:24.282Z,11.03
2022-12-24T10:14:59.563Z,10.85
2022-12-24T10:17:38.264Z,10.76
2022-12-24T10:20:18.051Z,10.80
2022-12-24T10:22:52.852Z,10.49
2022-12-24T10:25:22.953Z,10.63
2022-12-24T10:27:52.137Z,10.47
2022-12-24T10:30:21.785Z,10.54
2022-12-24T10:32:51.866Z,10.66
2022-12-24T10:35:22.880Z,10.20
2022-12-24T10:37:52.534Z,10.47
2022-12-24T10:40:27.234Z,10.34
2022-12-24T10:42:57.346Z,10.32
2022-12-24T10:45:27.067Z,10.24
2022-12-24T10:47:58.293Z,10.54
2022-12-24T10:50:30.850Z,10.26
2022-12-24T10:53:03.397Z,10.15
2022-12-24T10:55:31.475Z,10.45
2022-12-24T10:58:02.500Z,10.48
2022-12-24T11:00:35.948Z,10.48
2022-12-24T11:03:09.790Z,10.41
2022-12-24T11:05:40.560Z,10.37
2022-12-24T11:08:20.462Z,10.53
2022-12-24T11:10:55.552Z,10.60
2022-12-24T11:13:40.184Z,10.52
2022-12-24T11:16:11.324Z,10.56
2022-12-24T11:18:52.393Z,10.54
2022-12-24T11:21:25.734Z,10.29
2022-12-24T11:23:55.165Z,10.42
2022-12-24T11:26:26.486Z,10.46
2022-12-24T11:29:05.791Z,10.50
2022-12-24T11:31:37.217Z,10.33
2022-12-24T11:34:19.830Z,10.41
2022-12-24T11:36:47.823Z,10.41
2022-12-24T11:39:20.814Z,10.40
2022-12-24T11:41:48.975Z,10.13
2022-12-24T11:44:17.203Z,10.18
2022-12-24T11:46:47.145Z,10.14
2022-12-24T11:49:18.622Z,10.56
2022-12-24T11:52:04.629Z,10.54
2022-12-24T11:54:38.056Z,10.34
2022-12-24T11:57:06.950Z,10.26
2022-12-24T11:59:38.890Z,10.62
2022-12-24T12:02:16.780Z,10.36
2022-12-24T12:04:47.000Z,10.23
2022-12-24T12:07:16.744Z,10.09
2022-12-24T12:09:49.304Z,9.81
2022-12-24T12:12:23.138Z,9.82
2022-12-24T12:14:53.177Z,9.94
2022-12-24T12:17:28.190Z,10.00
2022-12-24T12:19:59.049Z,10.15
2022-12-24T12:22:30.239Z,10.21
2022-12-24T12:25:03.361Z,10.49
2022-12-24T12:27:36.659Z,10.41
2022-12-24T12:30:11.900Z,10.60
2022-12-24T12:32:43.973Z,10.77
2022-12-24T12:35:17.756Z,10.70
2022-12-24T12:37:47.235Z,11.08
2022-12-24T12:40:18.108Z,11.30
2022-12-24T12:42:51.503Z,10.86
2022-12-24T12:45:34.734Z,10.37
2022-12-24T12:48:16.292Z,10.15
2022-12-24T12:50:47.857Z,10.37
2022-12-24T12:53:25.288Z,10.28
2022-12-24T12:56:01.064Z,10.32
2022-12-24T12:58:31.832Z,10.35
2022-12-24T13:01:02.967Z,10.60
2022-12-24T13:03:56.880Z,10.90
2022-12-24T13:06:35.950Z,11.13
2022-12-24T13:09:16.318Z,10.91
2022-12-24T13:11:53.868Z,10.83
2022-12-24T13:14:31.433Z,10.85
2022-12-24T13:17:09.983Z,10.94
2022-12-24T13:19:52.559Z,11.14
2022-12-24T13:22:22.708Z,10.96
2022-12-24T13:24:52.650Z,11.41
2022-12-24T13:27:25.096Z,11.23
2022-12-24T13:29:54.385Z,11.57
2022-12-24T13:32:39.202Z,11.60
2022-12-24T13:35:22.169Z,11.40
2022-12-24T13:37:50.775Z,11.08
2022-12-24T13:40:23.663Z,11.17
2022-12-24T13:43:07.834Z,10.85
2022-12-24T13:45:42.694Z,10.62
2022-12-24T13:48:26.353Z,10.61
2022-12-24T13:50:55.225Z,10.60
2022-12-24T13:53:29.613Z,10.80
2022-12-24T13:55:59.443Z,10.50
2022-12-24T13:58:29.089Z,10.63
2022-12-24T14:00:59.179Z,10.58
2022-12-24T14:03:30.668Z,10.55
2022-12-24T14:06:00.432Z,10.66
2022-12-24T14:08:31.450Z,10.46
2022-12-24T14:11:03.987Z,10.56
2022-12-24T14:13:51.459Z,10.94
2022-12-24T14:16:22.554Z,11.16
2022-12-24T14:18:59.364Z,11.33
2022-12-24T14:21:29.434Z,10.95
2022-12-24T14:23:59.357Z,11.08
2022-12-24T14:26:30.219Z,10.87
2022-12-24T14:28:59.305Z,10.94
2022-12-24T14:31:31.070Z,10.76
2022-12-24T14:34:08.670Z,10.85
2022-12-24T14:36:37.631Z,10.55
2022-12-24T14:39:06.941Z,10.51
2022-12-24T14:41:43.824Z,10.31
2022-12-24T14:44:19.354Z,10.65
2022-12-24T14:46:49.972Z,10.76
2022-12-24T14:49:26.616Z,10.82
2022-12-24T14:52:00.785Z,10.37
2022-12-24T14:54:33.022Z,10.64
2022-12-24T14:57:14.455Z,10.37
2022-12-24T14:59:43.760Z,10.45
2022-12-24T15:02:32.107Z,10.24
2022-12-24T15:05:07.329Z,9.75
2022-12-24T15:07:39.538Z,9.82
2022-12-24T15:10:25.923Z,9.61
2022-12-24T15:12:55.253Z,9.56
2022-12-24T15:15:23.546Z,9.78
2022-12-24T15:17:53.488Z,9.89
2022-12-24T15:20:22.750Z,10.15
2022-12-24T15:22:52.718Z,10.15
2022-12-24T15:25:22.023Z,9.83
2022-12-24T15:27:50.028Z,9.46
2022-12-24T15:30:20.480Z,9.41
2022-12-24T15:32:48.724Z,9.46
2022-12-24T15:35:46.962Z,9.67
2022-12-24T15:38:24.415Z,9.83
2022-12-24T15:40:52.639Z,9.91
2022-12-24T15:43:23.098Z,9.65
2022-12-24T15:45:51.420Z,8.84
2022-12-24T15:48:23.642Z,9.13
2022-12-24T15:50:54.083Z,9.20
2022-12-24T15:53:25.045Z,8.72
2022-12-24T15:56:06.740Z,9.04
2022-12-24T15:58:36.155Z,9.15
2022-12-24T16:01:06.040Z,9.30
2022-12-24T16:03:37.196Z,9.12
2022-12-24T16:06:07.826Z,9.45
2022-12-24T16:08:38.437Z,9.44
2022-12-24T16:11:11.447Z,9.63
2022-12-24T16:13:42.617Z,8.92
2022-12-24T16:16:15.037Z,9.08
2022-12-24T16:18:46.887Z,9.26
2022-12-24T16:21:24.133Z,8.82
2022-12-24T16:23:54.034Z,8.91
2022-12-24T16:26:22.510Z,8.97
2022-12-24T16:28:53.002Z,9.01
2022-12-24T16:31:29.083Z,9.22
2022-12-24T16:33:58.962Z,9.00
2022-12-24T16:36:28.677Z,9.01
2022-12-24T16:39:14.754Z,8.82
2022-12-24T16:42:00.573Z,8.45
2022-12-24T16:44:28.693Z,8.45
2022-12-24T16:46:57.150Z,8.75
2022-12-24T16:49:25.264Z,8.57
2022-12-24T16:51:54.713Z,8.52
2022-12-24T16:54:22.767Z,8.59
2022-12-24T16:56:50.815Z,8.45
2022-12-24T16:59:20.922Z,8.60
2022-12-24T17:01:49.314Z,8.46
2022-12-24T17:04:18.215Z,8.59
2022-12-24T17:06:47.205Z,8.41
2022-12-24T17:09:16.600Z,8.50
2022-12-24T17:11:44.623Z,8.52
2022-12-24T17:14:19.730Z,8.43
2022-12-24T17:16:48.595Z,8.52
2022-12-24T17:19:17.868Z,8.67
2022-12-24T17:21:46.522Z,8.87
2022-12-24T17:24:15.876Z,8.56
2022-12-24T17:26:44.359Z,8.54
2022-12-24T17:29:14.897Z,8.69
2022-12-24T17:31:45.116Z,9.02
2022-12-24T17:34:15.626Z,8.82
2022-12-24T17:36:46.036Z,8.88
2022-12-24T17:39:14.136Z,8.91
2022-12-24T17:41:43.783Z,8.69
2022-12-24T17:44:13.337Z,9.20
2022-12-24T17:46:43.801Z,8.94
2022-12-24T17:49:11.820Z,8.93
2022-12-24T17:51:45.548Z,9.04
2022-12-24T17:54:14.221Z,8.97
2022-12-24T17:56:43.593Z,9.00
2022-12-24T17:59:11.699Z,9.02
2022-12-24T18:01:39.873Z,9.23
2022-12-24T18:04:08.086Z,9.11
2022-12-24T18:06:36.195Z,9.15
2022-12-24T18:09:04.216Z,9.08
2022-12-24T18:11:33.588Z,9.23
2022-12-24T18:14:05.469Z,8.98
2022-12-24T18:16:34.756Z,9.03
2022-12-24T18:19:03.371Z,8.90
2022-12-24T18:21:32.433Z,8.80
2022-12-24T18:24:01.407Z,8.99
2022-12-24T18:26:33.134Z,9.00
2022-12-24T18:29:04.291Z,9.00
2022-12-24T18:31:36.085Z,9.01
2022-12-24T18:34:05.283Z,9.00
2022-12-24T18:36:35.894Z,9.07
2022-12-24T18:39:04.019Z,8.89
2022-12-24T18:41:32.350Z,8.72
2022-12-24T18:44:00.706Z,8.59
2022-12-24T18:46:30.027Z,8.51
2022-12-24T18:49:00.180Z,8.57
2022-12-24T18:51:29.531Z,8.62
2022-12-24T18:53:57.961Z,8.69
2022-12-24T18:56:27.169Z,8.73
2022-12-24T18:58:55.927Z,8.96
2022-12-24T19:01:25.856Z,9.30
2022-12-24T19:03:54.046Z,9.03
2022-12-24T19:06:24.084Z,8.82
2022-12-24T19:08:58.349Z,8.82
2022-12-24T19:11:27.703Z,8.83
2022-12-24T19:13:57.903Z,8.81
2022-12-24T19:16:26.729Z,8.90
2022-12-24T19:18:54.987Z,9.38
2022-12-24T19:21:24.834Z,9.50
2022-12-24T19:23:53.301Z,9.39
2022-12-24T19:26:21.638Z,9.04
2022-12-24T19:28:50.124Z,9.00
2022-12-24T19:31:18.898Z,9.01
2022-12-24T19:33:47.792Z,8.81
2022-12-24T19:36:16.848Z,8.87
2022-12-24T19:38:46.655Z,8.92
2022-12-24T19:41:16.037Z,8.64
2022-12-24T19:43:45.522Z,8.60
2022-12-24T19:46:14.973Z,9.02
2022-12-24T19:48:43.411Z,8.65
2022-12-24T19:51:12.215Z,8.88
2022-12-24T19:53:40.716Z,8.86
2022-12-24T19:56:10.628Z,8.99
2022-12-24T19:58:41.009Z,8.97
2022-12-24T20:01:15.130Z,8.48
2022-12-24T20:03:44.775Z,8.40
2022-12-24T20:06:13.157Z,8.46
2022-12-24T20:08:41.303Z,8.49
2022-12-24T20:11:12.160Z,8.53
2022-12-24T20:13:40.879Z,8.53
2022-12-24T20:16:10.142Z,8.55
2022-12-24T20:18:38.392Z,8.71
2022-12-24T20:21:07.570Z,8.82
2022-12-24T20:23:35.699Z,8.92
2022-12-24T20:26:04.924Z,8.83
2022-12-24T20:28:35.151Z,8.93
2022-12-24T20:31:09.393Z,8.80
2022-12-24T20:33:37.455Z,9.15
2022-12-24T20:36:05.763Z,9.28
2022-12-24T20:38:33.947Z,9.29
2022-12-24T20:41:01.934Z,8.91
2022-12-24T20:43:35.280Z,8.98
2022-12-24T20:46:05.942Z,9.14
2022-12-24T20:48:34.831Z,8.85
2022-12-24T20:51:05.816Z,8.66
2022-12-24T20:53:33.928Z,8.81
2022-12-24T20:56:01.987Z,8.90
2022-12-24T20:58:32.207Z,8.87
2022-12-24T21:01:00.389Z,8.81
2022-12-24T21:03:29.813Z,9.21
2022-12-24T21:06:00.327Z,9.21
2022-12-24T21:08:28.475Z,9.16
2022-12-24T21:11:11.868Z,9.33
2022-12-24T21:13:39.930Z,9.12
2022-12-24T21:16:08.175Z,9.21
2022-12-24T21:18:37.666Z,9.16
2022-12-24T21:21:05.764Z,9.23
2022-12-24T21:23:33.916Z,9.32
2022-12-24T21:26:02.992Z,9.70
2022-12-24T21:28:31.976Z,9.14
2022-12-24T21:31:00.653Z,9.00
2022-12-24T21:33:33.403Z,8.98
2022-12-24T21:36:07.887Z,8.79
2022-12-24T21:38:36.321Z,8.72
2022-12-24T21:41:05.161Z,8.57
2022-12-24T21:43:33.716Z,8.68
2022-12-24T21:46:02.190Z,8.63
2022-12-24T21:48:47.944Z,8.65
2022-12-24T21:51:17.336Z,8.79
2022-12-24T21:54:02.684Z,8.97
2022-12-24T21:56:30.782Z,9.05
2022-12-24T21:58:57.794Z,9.17
2022-12-24T22:02:38.868Z,8.92
2022-12-24T22:05:07.992Z,9.26
2022-12-24T22:07:53.647Z,8.78
2022-12-24T22:10:40.852Z,9.08
2022-12-24T22:13:09.619Z,8.70
2022-12-24T22:15:44.526Z,8.81
2022-12-24T22:18:15.759Z,8.81
2022-12-24T22:20:45.167Z,8.78
2022-12-24T22:23:13.712Z,9.16
2022-12-24T22:25:41.968Z,8.66
2022-12-24T22:28:09.986Z,8.59
2022-12-24T22:30:39.248Z,8.85
2022-12-24T22:33:07.681Z,8.63
2022-12-24T22:35:39.300Z,8.52
2022-12-24T22:38:07.700Z,8.67
2022-12-24T22:40:35.793Z,9.13
2022-12-24T22:43:03.865Z,9.08
2022-12-24T22:45:31.865Z,8.78
2022-12-24T22:47:59.969Z,8.92
2022-12-24T22:50:28.049Z,8.55
2022-12-24T22:52:57.476Z,8.47
2022-12-24T22:55:25.558Z,8.23
2022-12-24T22:57:53.535Z,8.33
2022-12-24T23:00:37.706Z,8.60
2022-12-24T23:03:06.026Z,8.35
2022-12-24T23:05:35.112Z,8.42
2022-12-24T23:08:05.185Z,8.34
2022-12-24T23:10:33.190Z,8.37
2022-12-24T23:13:18.726Z,8.38
2022-12-24T23:15:46.854Z,8.28
2022-12-24T23:18:15.013Z,8.31
2022-12-24T23:20:46.238Z,8.16
2022-12-24T23:23:16.072Z,8.31
2022-12-24T23:25:46.592Z,8.44
2022-12-24T23:28:14.596Z,8.86
2022-12-24T23:30:42.726Z,8.50
2022-12-24T23:33:10.867Z,8.66
2022-12-24T23:35:38.895Z,8.60
2022-12-24T23:38:06.996Z,8.74
2022-12-24T23:40:36.343Z,8.82
2022-12-24T23:43:04.332Z,8.73
2022-12-24T23:45:32.349Z,8.80
2022-12-24T23:48:00.480Z,8.99
2022-12-24T23:50:28.505Z,8.46
2022-12-24T23:52:56.484Z,8.44
2022-12-24T23:55:24.567Z,8.32
2022-12-24T23:57:53.961Z,8.43
